sensor_id;sensor_type;location;lat;lon;timestamp;P1;durP1;ratioP1;P2;durP2;ratioP2
21943;SDS011;11136;48.778;9.126;2023-05-16T00:01:20;9.80;;;8.10;;
21943;SDS011;11136;48.778;9.126;2023-05-16T00:03:47;12.02;;;8.68;;
21943;SDS011;11136;48.778;9.126;2023-05-16T00:06:12;10.63;;;7.25;;
21943;SDS011;11136;48.778;9.126;2023-05-16T00:08:39;9.13;;;8.02;;
21943;SDS011;11136;48.778;9.126;2023-05-16T00:11:05;13.43;;;9.30;;
21943;SDS011;11136;48.778;9.126;2023-05-16T00:13:30;12.32;;;8.48;;
21943;SDS011;11136;48.778;9.126;2023-05-16T00:15:56;16.35;;;9.32;;
21943;SDS011;11136;48.778;9.126;2023-05-16T00:18:23;16.65;;;9.43;;
21943;SDS011;11136;48.778;9.126;2023-05-16T00:20:50;13.95;;;10.70;;
21943;SDS011;11136;48.778;9.126;2023-05-16T00:23:16;15.68;;;10.32;;
21943;SDS011;11136;48.778;9.126;2023-05-16T00:25:42;17.40;;;11.07;;
21943;SDS011;11136;48.778;9.126;2023-05-16T00:28:07;16.70;;;11.80;;
21943;SDS011;11136;48.778;9.126;2023-05-16T00:30:33;17.10;;;11.82;;
21943;SDS011;11136;48.778;9.126;2023-05-16T00:32:59;15.18;;;11.45;;
21943;SDS011;11136;48.778;9.126;2023-05-16T00:35:25;15.07;;;11.85;;
21943;SDS011;11136;48.778;9.126;2023-05-16T00:37:51;20.00;;;12.43;;
21943;SDS011;11136;48.778;9.126;2023-05-16T00:40:16;17.63;;;12.80;;
21943;SDS011;11136;48.778;9.126;2023-05-16T00:42:42;16.77;;;12.45;;
21943;SDS011;11136;48.778;9.126;2023-05-16T00:45:08;16.65;;;12.75;;
21943;SDS011;11136;48.778;9.126;2023-05-16T00:47:35;18.02;;;13.32;;
21943;SDS011;11136;48.778;9.126;2023-05-16T00:50:01;18.88;;;13.20;;
21943;SDS011;11136;48.778;9.126;2023-05-16T00:52:28;16.67;;;12.15;;
21943;SDS011;11136;48.778;9.126;2023-05-16T00:54:55;17.67;;;13.35;;
21943;SDS011;11136;48.778;9.126;2023-05-16T00:57:21;22.15;;;14.13;;
21943;SDS011;11136;48.778;9.126;2023-05-16T00:59:47;18.30;;;13.57;;
21943;SDS011;11136;48.778;9.126;2023-05-16T01:02:13;17.95;;;12.50;;
21943;SDS011;11136;48.778;9.126;2023-05-16T01:04:39;18.58;;;14.10;;
21943;SDS011;11136;48.778;9.126;2023-05-16T01:07:05;21.35;;;14.68;;
21943;SDS011;11136;48.778;9.126;2023-05-16T01:09:31;19.83;;;15.32;;
21943;SDS011;11136;48.778;9.126;2023-05-16T01:12:01;19.10;;;13.32;;
21943;SDS011;11136;48.778;9.126;2023-05-16T01:15:19;18.58;;;13.82;;
21943;SDS011;11136;48.778;9.126;2023-05-16T01:17:42;19.40;;;14.18;;
21943;SDS011;11136;48.778;9.126;2023-05-16T01:22:58;20.92;;;16.20;;
21943;SDS011;11136;48.778;9.126;2023-05-16T01:28:28;23.15;;;16.73;;
21943;SDS011;11136;48.778;9.126;2023-05-16T01:37:30;24.58;;;16.55;;
21943;SDS011;11136;48.778;9.126;2023-05-16T01:40:03;27.83;;;18.60;;
21943;SDS011;11136;48.778;9.126;2023-05-16T01:42:55;29.98;;;18.83;;
21943;SDS011;11136;48.778;9.126;2023-05-16T01:45:28;27.45;;;19.10;;
21943;SDS011;11136;48.778;9.126;2023-05-16T01:48:07;29.67;;;18.27;;
21943;SDS011;11136;48.778;9.126;2023-05-16T01:50:39;26.75;;;19.58;;
21943;SDS011;11136;48.778;9.126;2023-05-16T01:53:19;28.02;;;19.40;;
21943;SDS011;11136;48.778;9.126;2023-05-16T01:55:50;32.72;;;20.67;;
21943;SDS011;11136;48.778;9.126;2023-05-16T01:58:17;34.75;;;20.95;;
21943;SDS011;11136;48.778;9.126;2023-05-16T02:00:45;31.55;;;19.98;;
21943;SDS011;11136;48.778;9.126;2023-05-16T02:03:11;30.05;;;20.95;;
21943;SDS011;11136;48.778;9.126;2023-05-16T02:05:37;30.92;;;20.95;;
21943;SDS011;11136;48.778;9.126;2023-05-16T02:08:03;32.90;;;20.15;;
21943;SDS011;11136;48.778;9.126;2023-05-16T02:10:28;32.88;;;21.38;;
21943;SDS011;11136;48.778;9.126;2023-05-16T02:12:55;33.13;;;21.80;;
21943;SDS011;11136;48.778;9.126;2023-05-16T02:15:21;33.95;;;21.67;;
21943;SDS011;11136;48.778;9.126;2023-05-16T02:17:46;34.22;;;20.35;;
21943;SDS011;11136;48.778;9.126;2023-05-16T02:20:12;31.50;;;22.52;;
21943;SDS011;11136;48.778;9.126;2023-05-16T02:22:38;32.67;;;21.17;;
21943;SDS011;11136;48.778;9.126;2023-05-16T02:25:04;34.42;;;23.52;;
21943;SDS011;11136;48.778;9.126;2023-05-16T02:27:30;31.27;;;21.75;;
21943;SDS011;11136;48.778;9.126;2023-05-16T02:29:56;32.20;;;21.08;;
21943;SDS011;11136;48.778;9.126;2023-05-16T02:32:22;31.20;;;20.48;;
21943;SDS011;11136;48.778;9.126;2023-05-16T02:34:48;34.50;;;21.95;;
21943;SDS011;11136;48.778;9.126;2023-05-16T02:37:13;31.75;;;21.33;;
21943;SDS011;11136;48.778;9.126;2023-05-16T02:39:39;30.33;;;21.02;;
21943;SDS011;11136;48.778;9.126;2023-05-16T02:42:05;35.80;;;23.25;;
21943;SDS011;11136;48.778;9.126;2023-05-16T02:44:31;35.70;;;22.27;;
21943;SDS011;11136;48.778;9.126;2023-05-16T02:46:57;35.38;;;22.58;;
21943;SDS011;11136;48.778;9.126;2023-05-16T02:49:23;36.22;;;22.92;;
21943;SDS011;11136;48.778;9.126;2023-05-16T02:51:48;33.67;;;22.35;;
21943;SDS011;11136;48.778;9.126;2023-05-16T02:54:14;35.53;;;23.98;;
21943;SDS011;11136;48.778;9.126;2023-05-16T02:56:40;32.80;;;21.48;;
21943;SDS011;11136;48.778;9.126;2023-05-16T02:59:06;47.95;;;25.45;;
21943;SDS011;11136;48.778;9.126;2023-05-16T03:01:32;36.30;;;24.50;;
21943;SDS011;11136;48.778;9.126;2023-05-16T03:03:58;35.88;;;23.75;;
21943;SDS011;11136;48.778;9.126;2023-05-16T03:06:23;40.47;;;25.38;;
21943;SDS011;11136;48.778;9.126;2023-05-16T03:08:49;36.97;;;24.85;;
21943;SDS011;11136;48.778;9.126;2023-05-16T03:11:15;38.10;;;24.20;;
21943;SDS011;11136;48.778;9.126;2023-05-16T03:13:44;39.17;;;23.92;;
21943;SDS011;11136;48.778;9.126;2023-05-16T03:16:10;42.42;;;25.35;;
21943;SDS011;11136;48.778;9.126;2023-05-16T03:18:35;42.28;;;23.90;;
21943;SDS011;11136;48.778;9.126;2023-05-16T03:21:01;44.08;;;24.58;;
21943;SDS011;11136;48.778;9.126;2023-05-16T03:23:27;42.47;;;24.92;;
21943;SDS011;11136;48.778;9.126;2023-05-16T03:25:52;39.50;;;25.33;;
21943;SDS011;11136;48.778;9.126;2023-05-16T03:28:18;38.85;;;24.55;;
21943;SDS011;11136;48.778;9.126;2023-05-16T03:30:44;41.50;;;25.80;;
21943;SDS011;11136;48.778;9.126;2023-05-16T03:33:10;42.42;;;27.38;;
21943;SDS011;11136;48.778;9.126;2023-05-16T03:35:35;42.72;;;26.70;;
21943;SDS011;11136;48.778;9.126;2023-05-16T03:38:02;41.35;;;25.35;;
21943;SDS011;11136;48.778;9.126;2023-05-16T03:40:27;39.65;;;26.48;;
21943;SDS011;11136;48.778;9.126;2023-05-16T03:42:53;42.05;;;27.25;;
21943;SDS011;11136;48.778;9.126;2023-05-16T03:45:19;47.03;;;28.95;;
21943;SDS011;11136;48.778;9.126;2023-05-16T03:47:44;44.75;;;27.48;;
21943;SDS011;11136;48.778;9.126;2023-05-16T03:50:10;46.92;;;28.02;;
21943;SDS011;11136;48.778;9.126;2023-05-16T03:52:36;45.65;;;29.02;;
21943;SDS011;11136;48.778;9.126;2023-05-16T03:55:01;47.72;;;28.23;;
21943;SDS011;11136;48.778;9.126;2023-05-16T03:57:31;49.83;;;28.73;;
21943;SDS011;11136;48.778;9.126;2023-05-16T03:59:57;51.28;;;28.73;;
21943;SDS011;11136;48.778;9.126;2023-05-16T04:02:23;46.70;;;29.13;;
21943;SDS011;11136;48.778;9.126;2023-05-16T04:04:49;52.42;;;31.55;;
21943;SDS011;11136;48.778;9.126;2023-05-16T04:07:15;49.75;;;29.13;;
21943;SDS011;11136;48.778;9.126;2023-05-16T04:09:41;48.90;;;29.90;;
21943;SDS011;11136;48.778;9.126;2023-05-16T04:12:07;48.83;;;29.77;;
21943;SDS011;11136;48.778;9.126;2023-05-16T04:14:35;47.35;;;29.80;;
21943;SDS011;11136;48.778;9.126;2023-05-16T04:17:02;44.53;;;28.15;;
21943;SDS011;11136;48.778;9.126;2023-05-16T04:19:27;49.63;;;29.88;;
21943;SDS011;11136;48.778;9.126;2023-05-16T04:21:53;51.15;;;29.85;;
21943;SDS011;11136;48.778;9.126;2023-05-16T04:24:19;50.30;;;29.55;;
21943;SDS011;11136;48.778;9.126;2023-05-16T04:26:45;46.63;;;30.20;;
21943;SDS011;11136;48.778;9.126;2023-05-16T04:29:11;53.85;;;32.28;;
21943;SDS011;11136;48.778;9.126;2023-05-16T04:31:38;55.25;;;31.15;;
21943;SDS011;11136;48.778;9.126;2023-05-16T04:34:03;51.30;;;31.33;;
21943;SDS011;11136;48.778;9.126;2023-05-16T04:36:29;50.45;;;31.20;;
21943;SDS011;11136;48.778;9.126;2023-05-16T04:38:55;48.50;;;29.75;;
21943;SDS011;11136;48.778;9.126;2023-05-16T04:41:21;54.40;;;32.55;;
21943;SDS011;11136;48.778;9.126;2023-05-16T04:43:48;53.40;;;32.70;;
21943;SDS011;11136;48.778;9.126;2023-05-16T04:46:13;50.80;;;30.83;;
21943;SDS011;11136;48.778;9.126;2023-05-16T04:48:41;49.47;;;30.52;;
21943;SDS011;11136;48.778;9.126;2023-05-16T04:51:07;54.17;;;31.50;;
21943;SDS011;11136;48.778;9.126;2023-05-16T04:53:33;52.03;;;31.70;;
21943;SDS011;11136;48.778;9.126;2023-05-16T04:55:58;48.42;;;30.70;;
21943;SDS011;11136;48.778;9.126;2023-05-16T04:58:24;53.13;;;30.38;;
21943;SDS011;11136;48.778;9.126;2023-05-16T05:00:50;53.33;;;31.25;;
21943;SDS011;11136;48.778;9.126;2023-05-16T05:03:16;50.58;;;31.10;;
21943;SDS011;11136;48.778;9.126;2023-05-16T05:05:42;50.95;;;30.70;;
21943;SDS011;11136;48.778;9.126;2023-05-16T05:08:08;55.35;;;32.25;;
21943;SDS011;11136;48.778;9.126;2023-05-16T05:10:34;55.15;;;31.90;;
21943;SDS011;11136;48.778;9.126;2023-05-16T05:13:00;54.95;;;31.27;;
21943;SDS011;11136;48.778;9.126;2023-05-16T05:15:27;53.85;;;31.05;;
21943;SDS011;11136;48.778;9.126;2023-05-16T05:17:52;52.38;;;30.92;;
21943;SDS011;11136;48.778;9.126;2023-05-16T05:20:18;47.70;;;30.20;;
21943;SDS011;11136;48.778;9.126;2023-05-16T05:22:44;49.20;;;30.55;;
21943;SDS011;11136;48.778;9.126;2023-05-16T05:25:09;50.35;;;32.03;;
21943;SDS011;11136;48.778;9.126;2023-05-16T05:27:35;49.97;;;30.58;;
21943;SDS011;11136;48.778;9.126;2023-05-16T05:30:01;49.70;;;30.27;;
21943;SDS011;11136;48.778;9.126;2023-05-16T05:32:27;47.13;;;28.60;;
21943;SDS011;11136;48.778;9.126;2023-05-16T05:34:53;47.92;;;31.00;;
21943;SDS011;11136;48.778;9.126;2023-05-16T05:37:18;47.67;;;29.27;;
21943;SDS011;11136;48.778;9.126;2023-05-16T05:39:44;49.75;;;30.50;;
21943;SDS011;11136;48.778;9.126;2023-05-16T05:42:10;46.10;;;28.80;;
21943;SDS011;11136;48.778;9.126;2023-05-16T05:44:36;47.72;;;28.63;;
21943;SDS011;11136;48.778;9.126;2023-05-16T05:47:02;44.28;;;27.83;;
21943;SDS011;11136;48.778;9.126;2023-05-16T05:49:28;44.03;;;27.40;;
21943;SDS011;11136;48.778;9.126;2023-05-16T05:51:54;51.55;;;30.45;;
21943;SDS011;11136;48.778;9.126;2023-05-16T05:54:22;44.75;;;28.23;;
21943;SDS011;11136;48.778;9.126;2023-05-16T05:56:48;46.00;;;28.50;;
21943;SDS011;11136;48.778;9.126;2023-05-16T05:59:14;44.65;;;28.40;;
21943;SDS011;11136;48.778;9.126;2023-05-16T06:01:39;42.90;;;27.48;;
21943;SDS011;11136;48.778;9.126;2023-05-16T06:04:05;44.53;;;27.45;;
21943;SDS011;11136;48.778;9.126;2023-05-16T06:06:31;42.92;;;26.40;;
21943;SDS011;11136;48.778;9.126;2023-05-16T06:08:57;44.13;;;26.02;;
21943;SDS011;11136;48.778;9.126;2023-05-16T06:11:23;45.40;;;27.67;;
21943;SDS011;11136;48.778;9.126;2023-05-16T06:13:49;42.05;;;27.05;;
21943;SDS011;11136;48.778;9.126;2023-05-16T06:16:16;45.83;;;27.25;;
21943;SDS011;11136;48.778;9.126;2023-05-16T06:18:41;45.22;;;27.83;;
21943;SDS011;11136;48.778;9.126;2023-05-16T06:21:07;42.42;;;26.10;;
21943;SDS011;11136;48.778;9.126;2023-05-16T06:23:33;38.42;;;24.42;;
21943;SDS011;11136;48.778;9.126;2023-05-16T06:26:00;37.80;;;25.30;;
21943;SDS011;11136;48.778;9.126;2023-05-16T06:28:28;42.60;;;26.00;;
21943;SDS011;11136;48.778;9.126;2023-05-16T06:30:54;43.72;;;27.25;;
21943;SDS011;11136;48.778;9.126;2023-05-16T06:33:20;37.80;;;24.38;;
21943;SDS011;11136;48.778;9.126;2023-05-16T06:35:45;41.90;;;26.00;;
21943;SDS011;11136;48.778;9.126;2023-05-16T06:38:12;36.47;;;23.73;;
21943;SDS011;11136;48.778;9.126;2023-05-16T06:40:42;40.90;;;24.55;;
21943;SDS011;11136;48.778;9.126;2023-05-16T06:43:07;38.38;;;24.48;;
21943;SDS011;11136;48.778;9.126;2023-05-16T06:45:33;37.72;;;24.55;;
21943;SDS011;11136;48.778;9.126;2023-05-16T06:47:59;41.35;;;24.42;;
21943;SDS011;11136;48.778;9.126;2023-05-16T06:50:25;40.42;;;25.52;;
21943;SDS011;11136;48.778;9.126;2023-05-16T06:52:50;38.42;;;23.48;;
21943;SDS011;11136;48.778;9.126;2023-05-16T06:55:16;40.10;;;23.73;;
21943;SDS011;11136;48.778;9.126;2023-05-16T06:57:41;37.40;;;22.98;;
21943;SDS011;11136;48.778;9.126;2023-05-16T07:00:07;37.42;;;23.10;;
21943;SDS011;11136;48.778;9.126;2023-05-16T07:02:33;32.75;;;22.38;;
21943;SDS011;11136;48.778;9.126;2023-05-16T07:04:59;40.60;;;23.42;;
21943;SDS011;11136;48.778;9.126;2023-05-16T07:07:24;32.17;;;22.02;;
21943;SDS011;11136;48.778;9.126;2023-05-16T07:09:50;36.70;;;22.85;;
21943;SDS011;11136;48.778;9.126;2023-05-16T07:12:16;33.47;;;21.20;;
21943;SDS011;11136;48.778;9.126;2023-05-16T07:14:42;30.08;;;20.33;;
21943;SDS011;11136;48.778;9.126;2023-05-16T07:17:08;28.63;;;19.52;;
21943;SDS011;11136;48.778;9.126;2023-05-16T07:19:34;29.60;;;19.45;;
21943;SDS011;11136;48.778;9.126;2023-05-16T07:22:00;28.20;;;18.45;;
21943;SDS011;11136;48.778;9.126;2023-05-16T07:24:26;31.40;;;19.60;;
21943;SDS011;11136;48.778;9.126;2023-05-16T07:26:51;28.95;;;18.05;;
21943;SDS011;11136;48.778;9.126;2023-05-16T07:29:17;26.83;;;17.45;;
21943;SDS011;11136;48.778;9.126;2023-05-16T07:31:43;27.40;;;18.38;;
21943;SDS011;11136;48.778;9.126;2023-05-16T07:34:09;25.38;;;17.45;;
21943;SDS011;11136;48.778;9.126;2023-05-16T07:36:35;25.40;;;16.83;;
21943;SDS011;11136;48.778;9.126;2023-05-16T07:39:01;23.20;;;15.90;;
21943;SDS011;11136;48.778;9.126;2023-05-16T07:41:28;20.80;;;14.73;;
21943;SDS011;11136;48.778;9.126;2023-05-16T07:43:54;22.13;;;15.00;;
21943;SDS011;11136;48.778;9.126;2023-05-16T07:46:19;24.90;;;14.27;;
21943;SDS011;11136;48.778;9.126;2023-05-16T07:48:45;20.77;;;14.27;;
21943;SDS011;11136;48.778;9.126;2023-05-16T07:51:11;23.10;;;14.55;;
21943;SDS011;11136;48.778;9.126;2023-05-16T07:53:36;21.73;;;15.63;;
21943;SDS011;11136;48.778;9.126;2023-05-16T07:56:02;24.08;;;16.38;;
21943;SDS011;11136;48.778;9.126;2023-05-16T07:58:28;26.98;;;16.20;;
21943;SDS011;11136;48.778;9.126;2023-05-16T08:00:53;25.65;;;16.27;;
21943;SDS011;11136;48.778;9.126;2023-05-16T08:03:19;23.20;;;16.35;;
21943;SDS011;11136;48.778;9.126;2023-05-16T08:05:45;22.58;;;15.38;;
21943;SDS011;11136;48.778;9.126;2023-05-16T08:08:12;26.35;;;15.68;;
21943;SDS011;11136;48.778;9.126;2023-05-16T08:10:38;20.40;;;13.45;;
21943;SDS011;11136;48.778;9.126;2023-05-16T08:13:03;20.27;;;14.43;;
21943;SDS011;11136;48.778;9.126;2023-05-16T08:15:29;22.45;;;14.45;;
21943;SDS011;11136;48.778;9.126;2023-05-16T08:17:56;24.80;;;15.25;;
21943;SDS011;11136;48.778;9.126;2023-05-16T08:20:22;28.35;;;16.00;;
21943;SDS011;11136;48.778;9.126;2023-05-16T08:22:48;22.23;;;14.82;;
21943;SDS011;11136;48.778;9.126;2023-05-16T08:25:13;22.10;;;15.32;;
21943;SDS011;11136;48.778;9.126;2023-05-16T08:27:39;22.25;;;14.43;;
21943;SDS011;11136;48.778;9.126;2023-05-16T08:30:05;22.85;;;14.70;;
21943;SDS011;11136;48.778;9.126;2023-05-16T08:32:31;18.02;;;12.90;;
21943;SDS011;11136;48.778;9.126;2023-05-16T08:34:56;16.90;;;11.88;;
21943;SDS011;11136;48.778;9.126;2023-05-16T08:37:22;15.15;;;10.82;;
21943;SDS011;11136;48.778;9.126;2023-05-16T08:39:48;15.27;;;10.82;;
21943;SDS011;11136;48.778;9.126;2023-05-16T08:42:13;17.33;;;10.93;;
21943;SDS011;11136;48.778;9.126;2023-05-16T08:44:39;15.68;;;10.75;;
21943;SDS011;11136;48.778;9.126;2023-05-16T08:47:12;14.45;;;11.23;;
21943;SDS011;11136;48.778;9.126;2023-05-16T08:49:42;15.10;;;11.38;;
21943;SDS011;11136;48.778;9.126;2023-05-16T08:52:11;17.90;;;11.93;;
21943;SDS011;11136;48.778;9.126;2023-05-16T08:54:38;17.15;;;11.40;;
21943;SDS011;11136;48.778;9.126;2023-05-16T08:57:05;19.50;;;13.07;;
21943;SDS011;11136;48.778;9.126;2023-05-16T08:59:32;19.60;;;13.02;;
21943;SDS011;11136;48.778;9.126;2023-05-16T09:01:58;17.75;;;12.77;;
21943;SDS011;11136;48.778;9.126;2023-05-16T09:04:24;19.67;;;13.98;;
21943;SDS011;11136;48.778;9.126;2023-05-16T09:06:51;18.33;;;13.18;;
21943;SDS011;11136;48.778;9.126;2023-05-16T09:09:17;18.15;;;12.95;;
21943;SDS011;11136;48.778;9.126;2023-05-16T09:11:43;19.63;;;12.85;;
21943;SDS011;11136;48.778;9.126;2023-05-16T09:14:09;20.63;;;13.40;;
21943;SDS011;11136;48.778;9.126;2023-05-16T09:16:35;21.88;;;15.15;;
21943;SDS011;11136;48.778;9.126;2023-05-16T09:19:00;23.52;;;16.55;;
21943;SDS011;11136;48.778;9.126;2023-05-16T09:21:27;26.05;;;15.52;;
21943;SDS011;11136;48.778;9.126;2023-05-16T09:23:55;26.73;;;17.13;;
21943;SDS011;11136;48.778;9.126;2023-05-16T09:26:26;25.58;;;16.77;;
21943;SDS011;11136;48.778;9.126;2023-05-16T09:28:52;23.27;;;16.08;;
21943;SDS011;11136;48.778;9.126;2023-05-16T09:31:20;26.20;;;16.90;;
21943;SDS011;11136;48.778;9.126;2023-05-16T09:33:48;23.45;;;15.30;;
21943;SDS011;11136;48.778;9.126;2023-05-16T09:36:14;26.13;;;16.98;;
21943;SDS011;11136;48.778;9.126;2023-05-16T09:38:40;21.60;;;16.08;;
21943;SDS011;11136;48.778;9.126;2023-05-16T09:41:07;26.65;;;16.58;;
21943;SDS011;11136;48.778;9.126;2023-05-16T09:43:36;26.98;;;16.30;;
21943;SDS011;11136;48.778;9.126;2023-05-16T09:46:03;25.13;;;16.10;;
21943;SDS011;11136;48.778;9.126;2023-05-16T09:48:28;24.88;;;16.17;;
21943;SDS011;11136;48.778;9.126;2023-05-16T09:50:55;28.10;;;16.42;;
21943;SDS011;11136;48.778;9.126;2023-05-16T09:53:27;24.88;;;16.75;;
21943;SDS011;11136;48.778;9.126;2023-05-16T09:56:03;25.83;;;16.60;;
21943;SDS011;11136;48.778;9.126;2023-05-16T09:58:32;23.63;;;16.15;;
21943;SDS011;11136;48.778;9.126;2023-05-16T10:00:59;26.17;;;16.45;;
21943;SDS011;11136;48.778;9.126;2023-05-16T10:03:25;23.77;;;15.88;;
21943;SDS011;11136;48.778;9.126;2023-05-16T10:05:51;23.20;;;15.23;;
21943;SDS011;11136;48.778;9.126;2023-05-16T10:08:22;22.60;;;14.35;;
21943;SDS011;11136;48.778;9.126;2023-05-16T10:13:20;22.58;;;13.82;;
21943;SDS011;11136;48.778;9.126;2023-05-16T10:15:48;21.27;;;14.43;;
21943;SDS011;11136;48.778;9.126;2023-05-16T10:18:15;19.15;;;13.68;;
21943;SDS011;11136;48.778;9.126;2023-05-16T10:20:43;20.85;;;13.82;;
21943;SDS011;11136;48.778;9.126;2023-05-16T10:23:14;21.95;;;14.60;;
21943;SDS011;11136;48.778;9.126;2023-05-16T10:25:41;18.33;;;13.18;;
21943;SDS011;11136;48.778;9.126;2023-05-16T10:28:08;20.38;;;12.93;;
21943;SDS011;11136;48.778;9.126;2023-05-16T10:30:34;18.20;;;13.40;;
21943;SDS011;11136;48.778;9.126;2023-05-16T10:33:01;19.20;;;13.05;;
21943;SDS011;11136;48.778;9.126;2023-05-16T10:35:28;18.17;;;12.93;;
21943;SDS011;11136;48.778;9.126;2023-05-16T10:37:55;17.52;;;12.45;;
21943;SDS011;11136;48.778;9.126;2023-05-16T10:40:22;18.38;;;12.70;;
21943;SDS011;11136;48.778;9.126;2023-05-16T10:42:58;18.55;;;11.95;;
21943;SDS011;11136;48.778;9.126;2023-05-16T10:45:26;18.13;;;12.13;;
21943;SDS011;11136;48.778;9.126;2023-05-16T10:47:56;20.02;;;10.90;;
21943;SDS011;11136;48.778;9.126;2023-05-16T11:01:19;20.10;;;12.40;;
21943;SDS011;11136;48.778;9.126;2023-05-16T11:06:24;14.30;;;10.75;;
21943;SDS011;11136;48.778;9.126;2023-05-16T11:11:47;19.40;;;9.95;;
21943;SDS011;11136;48.778;9.126;2023-05-16T11:17:06;16.23;;;9.90;;
21943;SDS011;11136;48.778;9.126;2023-05-16T11:22:22;18.50;;;9.77;;
21943;SDS011;11136;48.778;9.126;2023-05-16T11:24:56;10.73;;;7.93;;
21943;SDS011;11136;48.778;9.126;2023-05-16T11:27:26;13.70;;;8.35;;
21943;SDS011;11136;48.778;9.126;2023-05-16T11:29:53;12.73;;;8.15;;
21943;SDS011;11136;48.778;9.126;2023-05-16T11:32:22;14.63;;;8.30;;
21943;SDS011;11136;48.778;9.126;2023-05-16T11:34:48;11.88;;;7.57;;
21943;SDS011;11136;48.778;9.126;2023-05-16T11:37:15;12.63;;;8.05;;
21943;SDS011;11136;48.778;9.126;2023-05-16T11:39:42;10.48;;;6.85;;
21943;SDS011;11136;48.778;9.126;2023-05-16T11:42:08;12.88;;;7.10;;
21943;SDS011;11136;48.778;9.126;2023-05-16T11:44:34;9.00;;;6.30;;
21943;SDS011;11136;48.778;9.126;2023-05-16T11:46:59;10.50;;;6.53;;
21943;SDS011;11136;48.778;9.126;2023-05-16T11:49:26;8.15;;;6.45;;
21943;SDS011;11136;48.778;9.126;2023-05-16T11:51:53;10.30;;;6.90;;
21943;SDS011;11136;48.778;9.126;2023-05-16T11:54:19;10.25;;;5.70;;
21943;SDS011;11136;48.778;9.126;2023-05-16T11:56:45;10.25;;;5.88;;
21943;SDS011;11136;48.778;9.126;2023-05-16T11:59:11;9.88;;;6.00;;
21943;SDS011;11136;48.778;9.126;2023-05-16T12:01:37;10.13;;;6.10;;
21943;SDS011;11136;48.778;9.126;2023-05-16T12:04:10;10.02;;;6.18;;
21943;SDS011;11136;48.778;9.126;2023-05-16T12:06:37;8.93;;;6.45;;
21943;SDS011;11136;48.778;9.126;2023-05-16T12:09:03;9.68;;;5.90;;
21943;SDS011;11136;48.778;9.126;2023-05-16T12:11:37;12.55;;;6.60;;
21943;SDS011;11136;48.778;9.126;2023-05-16T12:14:09;7.47;;;5.25;;
21943;SDS011;11136;48.778;9.126;2023-05-16T12:16:36;9.15;;;6.45;;
21943;SDS011;11136;48.778;9.126;2023-05-16T12:19:06;8.13;;;5.63;;
21943;SDS011;11136;48.778;9.126;2023-05-16T12:21:33;10.52;;;5.63;;
21943;SDS011;11136;48.778;9.126;2023-05-16T12:23:59;7.25;;;5.50;;
21943;SDS011;11136;48.778;9.126;2023-05-16T12:26:29;9.90;;;6.82;;
21943;SDS011;11136;48.778;9.126;2023-05-16T12:28:59;10.98;;;5.60;;
21943;SDS011;11136;48.778;9.126;2023-05-16T12:33:54;7.13;;;5.03;;
21943;SDS011;11136;48.778;9.126;2023-05-16T12:36:20;9.50;;;6.40;;
21943;SDS011;11136;48.778;9.126;2023-05-16T12:38:48;9.20;;;5.47;;
21943;SDS011;11136;48.778;9.126;2023-05-16T12:41:17;8.23;;;5.65;;
21943;SDS011;11136;48.778;9.126;2023-05-16T12:43:46;8.00;;;6.15;;
21943;SDS011;11136;48.778;9.126;2023-05-16T12:46:13;8.23;;;4.63;;
21943;SDS011;11136;48.778;9.126;2023-05-16T12:48:39;6.45;;;4.28;;
21943;SDS011;11136;48.778;9.126;2023-05-16T12:51:14;6.15;;;3.72;;
21943;SDS011;11136;48.778;9.126;2023-05-16T12:53:45;6.35;;;3.83;;
21943;SDS011;11136;48.778;9.126;2023-05-16T12:56:12;5.55;;;3.40;;
21943;SDS011;11136;48.778;9.126;2023-05-16T12:58:39;3.95;;;3.03;;
21943;SDS011;11136;48.778;9.126;2023-05-16T13:01:05;4.97;;;3.35;;
21943;SDS011;11136;48.778;9.126;2023-05-16T13:03:31;4.60;;;3.58;;
21943;SDS011;11136;48.778;9.126;2023-05-16T13:05:58;4.38;;;3.40;;
21943;SDS011;11136;48.778;9.126;2023-05-16T13:08:24;3.28;;;2.97;;
21943;SDS011;11136;48.778;9.126;2023-05-16T13:10:50;4.05;;;3.13;;
21943;SDS011;11136;48.778;9.126;2023-05-16T13:13:16;4.55;;;3.03;;
21943;SDS011;11136;48.778;9.126;2023-05-16T13:15:46;5.05;;;3.08;;
21943;SDS011;11136;48.778;9.126;2023-05-16T13:18:12;8.00;;;3.00;;
21943;SDS011;11136;48.778;9.126;2023-05-16T13:20:38;6.80;;;2.78;;
21943;SDS011;11136;48.778;9.126;2023-05-16T13:23:04;2.50;;;2.22;;
21943;SDS011;11136;48.778;9.126;2023-05-16T13:25:30;2.70;;;2.22;;
21943;SDS011;11136;48.778;9.126;2023-05-16T13:27:56;6.40;;;3.42;;
21943;SDS011;11136;48.778;9.126;2023-05-16T13:30:22;3.20;;;2.30;;
21943;SDS011;11136;48.778;9.126;2023-05-16T13:32:48;2.88;;;2.10;;
21943;SDS011;11136;48.778;9.126;2023-05-16T13:35:14;3.25;;;2.10;;
21943;SDS011;11136;48.778;9.126;2023-05-16T13:37:40;2.47;;;1.85;;
21943;SDS011;11136;48.778;9.126;2023-05-16T13:40:06;3.20;;;2.05;;
21943;SDS011;11136;48.778;9.126;2023-05-16T13:42:35;7.20;;;2.47;;
21943;SDS011;11136;48.778;9.126;2023-05-16T13:45:02;10.75;;;2.42;;
21943;SDS011;11136;48.778;9.126;2023-05-16T13:47:29;6.82;;;1.90;;
21943;SDS011;11136;48.778;9.126;2023-05-16T13:49:55;6.65;;;2.20;;
21943;SDS011;11136;48.778;9.126;2023-05-16T13:52:20;3.47;;;2.38;;
21943;SDS011;11136;48.778;9.126;2023-05-16T13:54:46;6.22;;;2.00;;
21943;SDS011;11136;48.778;9.126;2023-05-16T13:57:11;4.60;;;1.90;;
21943;SDS011;11136;48.778;9.126;2023-05-16T13:59:37;2.58;;;2.05;;
21943;SDS011;11136;48.778;9.126;2023-05-16T14:02:03;4.80;;;2.00;;
21943;SDS011;11136;48.778;9.126;2023-05-16T14:04:29;4.30;;;2.20;;
21943;SDS011;11136;48.778;9.126;2023-05-16T14:06:54;2.78;;;1.98;;
21943;SDS011;11136;48.778;9.126;2023-05-16T14:09:20;4.20;;;1.88;;
21943;SDS011;11136;48.778;9.126;2023-05-16T14:11:46;3.90;;;2.83;;
21943;SDS011;11136;48.778;9.126;2023-05-16T14:14:12;3.03;;;1.85;;
21943;SDS011;11136;48.778;9.126;2023-05-16T14:16:37;2.10;;;1.85;;
21943;SDS011;11136;48.778;9.126;2023-05-16T14:19:07;5.47;;;2.30;;
21943;SDS011;11136;48.778;9.126;2023-05-16T14:21:33;2.15;;;1.85;;
21943;SDS011;11136;48.778;9.126;2023-05-16T14:23:58;2.80;;;1.95;;
21943;SDS011;11136;48.778;9.126;2023-05-16T14:26:24;1.95;;;1.55;;
21943;SDS011;11136;48.778;9.126;2023-05-16T14:28:50;3.25;;;1.83;;
21943;SDS011;11136;48.778;9.126;2023-05-16T14:31:16;3.45;;;1.85;;
21943;SDS011;11136;48.778;9.126;2023-05-16T14:33:42;3.13;;;2.33;;
21943;SDS011;11136;48.778;9.126;2023-05-16T14:36:08;3.83;;;2.00;;
21943;SDS011;11136;48.778;9.126;2023-05-16T14:38:33;4.00;;;1.90;;
21943;SDS011;11136;48.778;9.126;2023-05-16T14:40:59;4.78;;;2.08;;
21943;SDS011;11136;48.778;9.126;2023-05-16T14:43:25;2.40;;;1.73;;
21943;SDS011;11136;48.778;9.126;2023-05-16T14:45:50;2.03;;;1.70;;
21943;SDS011;11136;48.778;9.126;2023-05-16T14:48:16;7.00;;;1.77;;
21943;SDS011;11136;48.778;9.126;2023-05-16T14:50:42;3.15;;;1.55;;
21943;SDS011;11136;48.778;9.126;2023-05-16T14:53:07;5.78;;;2.08;;
21943;SDS011;11136;48.778;9.126;2023-05-16T14:55:33;4.00;;;1.55;;
21943;SDS011;11136;48.778;9.126;2023-05-16T14:57:59;3.55;;;2.03;;
21943;SDS011;11136;48.778;9.126;2023-05-16T15:00:24;4.95;;;1.55;;
21943;SDS011;11136;48.778;9.126;2023-05-16T15:02:51;2.72;;;1.60;;
21943;SDS011;11136;48.778;9.126;2023-05-16T15:05:16;1.77;;;1.45;;